createdAt,value
2022-11-28T00:01:25.381Z,70.31
2022-11-28T00:03:52.394Z,70.86
2022-11-28T00:06:19.312Z,72.40
2022-11-28T00:08:46.215Z,72.36
2022-11-28T00:11:15.428Z,72.61
2022-11-28T00:13:42.685Z,73.00
2022-11-28T00:16:13.592Z,73.77
2022-11-28T00:18:40.216Z,74.09
2022-11-28T00:21:10.218Z,74.55
2022-11-28T00:23:36.896Z,72.68
2022-11-28T00:26:30.609Z,74.00
2022-11-28T00:28:58.461Z,74.42
2022-11-28T00:31:34.270Z,74.63
2022-11-28T00:34:02.016Z,75.01
2022-11-28T00:36:29.516Z,75.40
2022-11-28T00:38:56.383Z,75.78
2022-11-28T00:41:25.708Z,76.08
2022-11-28T00:43:52.969Z,75.95
2022-11-28T00:46:21.697Z,76.51
2022-11-28T00:48:49.368Z,77.94
2022-11-28T00:51:24.571Z,78.87
2022-11-28T00:53:53.172Z,78.29
2022-11-28T00:56:22.878Z,78.09
2022-11-28T00:58:49.835Z,77.69
2022-11-28T01:01:32.728Z,78.13
2022-11-28T01:04:01.888Z,78.32
2022-11-28T01:06:31.345Z,78.28
2022-11-28T01:09:07.902Z,78.08
2022-11-28T01:11:35.463Z,77.48
2022-11-28T01:14:02.872Z,78.27
2022-11-28T01:16:29.807Z,78.49
2022-11-28T01:18:57.192Z,79.23
2022-11-28T01:21:24.429Z,79.18
2022-11-28T01:23:51.153Z,79.18
2022-11-28T01:26:20.838Z,79.47
2022-11-28T01:28:48.105Z,78.70
2022-11-28T01:31:17.737Z,76.57
2022-11-28T01:33:45.223Z,75.14
2022-11-28T01:36:12.971Z,74.77
2022-11-28T01:38:40.146Z,73.04
2022-11-28T01:41:07.373Z,72.43
2022-11-28T01:43:35.010Z,72.30
2022-11-28T01:46:02.346Z,72.11
2022-11-28T01:48:37.807Z,72.10
2022-11-28T01:51:07.218Z,71.27
2022-11-28T01:53:36.318Z,71.17
2022-11-28T01:56:07.626Z,71.40
2022-11-28T01:58:36.570Z,71.78
2022-11-28T02:01:04.179Z,71.88
2022-11-28T02:03:39.409Z,71.73
2022-11-28T02:06:06.351Z,71.46
2022-11-28T02:08:35.018Z,71.15
2022-11-28T02:11:07.825Z,71.38
2022-11-28T02:14:03.704Z,72.31
2022-11-28T02:16:48.963Z,71.77
2022-11-28T02:19:21.512Z,72.42
2022-11-28T02:22:04.742Z,72.67
2022-11-28T02:24:53.899Z,73.09
2022-11-28T02:27:40.568Z,73.71
2022-11-28T02:30:09.905Z,73.54
2022-11-28T02:32:47.712Z,73.70
2022-11-28T02:35:27.782Z,73.56
2022-11-28T02:38:04.530Z,73.13
2022-11-28T02:40:55.339Z,73.88
2022-11-28T02:43:51.078Z,74.43
2022-11-28T02:46:23.602Z,75.33
2022-11-28T02:48:54.824Z,74.12
2022-11-28T02:51:36.957Z,74.86
2022-11-28T02:54:07.796Z,75.31
2022-11-28T02:56:34.380Z,74.52
2022-11-28T02:59:01.269Z,74.97
2022-11-28T03:01:33.580Z,75.13
2022-11-28T03:04:18.261Z,76.02
2022-11-28T03:07:00.135Z,76.18
2022-11-28T03:09:36.006Z,76.48
2022-11-28T03:12:19.715Z,76.18
2022-11-28T03:14:51.123Z,76.12
2022-11-28T03:17:32.931Z,76.38
2022-11-28T03:20:49.116Z,76.60
2022-11-28T03:23:28.143Z,77.27
2022-11-28T03:26:00.582Z,77.92
2022-11-28T03:28:32.268Z,77.77
2022-11-28T03:31:01.507Z,78.08
2022-11-28T03:33:34.990Z,78.31
2022-11-28T03:36:24.900Z,78.64
2022-11-28T03:39:00.488Z,78.96
2022-11-28T03:41:36.338Z,78.89
2022-11-28T03:44:07.862Z,79.39
2022-11-28T03:46:39.154Z,80.07
2022-11-28T03:49:09.558Z,80.15
2022-11-28T03:51:46.729Z,80.13
2022-11-28T03:54:19.379Z,80.41
2022-11-28T03:56:57.478Z,80.43
2022-11-28T03:59:30.641Z,80.59
2022-11-28T04:02:07.849Z,81.31
2022-11-28T04:04:43.368Z,80.75
2022-11-28T04:07:47.575Z,81.01
2022-11-28T04:10:32.085Z,80.87
2022-11-28T04:13:07.663Z,81.07
2022-11-28T04:15:49.316Z,81.17
2022-11-28T04:18:21.931Z,81.67
2022-11-28T04:20:53.711Z,81.99
2022-11-28T04:23:22.480Z,81.66
2022-11-28T04:25:58.893Z,82.02
2022-11-28T04:28:29.849Z,82.50
2022-11-28T04:30:59.197Z,82.39
2022-11-28T04:33:29.324Z,82.49
2022-11-28T04:35:57.235Z,82.78
2022-11-28T04:38:26.570Z,81.88
2022-11-28T04:41:16.874Z,81.85
2022-11-28T04:43:50.836Z,82.20
2022-11-28T04:46:32.996Z,82.25
2022-11-28T04:48:59.649Z,82.28
2022-11-28T04:51:47.737Z,82.16
2022-11-28T04:54:32.437Z,81.81
2022-11-28T04:57:12.228Z,81.87
2022-11-28T04:59:41.394Z,82.33
2022-11-28T05:02:09.143Z,82.10
2022-11-28T05:04:36.968Z,81.13
2022-11-28T05:07:05.414Z,81.19
2022-11-28T05:09:32.069Z,80.87
2022-11-28T05:11:58.848Z,81.46
2022-11-28T05:14:25.931Z,81.37
2022-11-28T05:16:52.720Z,81.59
2022-11-28T05:19:19.408Z,81.66
2022-11-28T05:21:46.127Z,81.74
2022-11-28T05:24:13.106Z,82.23
2022-11-28T05:26:39.728Z,81.96
2022-11-28T05:29:07.204Z,82.80
2022-11-28T05:31:33.953Z,83.43
2022-11-28T05:34:00.600Z,83.86
2022-11-28T05:36:27.178Z,84.35
2022-11-28T05:38:53.759Z,84.18
2022-11-28T05:41:26.091Z,85.02
2022-11-28T05:43:53.384Z,84.85
2022-11-28T05:46:20.483Z,85.85
2022-11-28T05:48:47.322Z,84.78
2022-11-28T05:51:14.125Z,85.08
2022-11-28T05:53:40.782Z,85.60
2022-11-28T05:56:12.917Z,85.71
2022-11-28T05:58:39.675Z,85.01
2022-11-28T06:01:15.191Z,85.07
2022-11-28T06:03:42.224Z,85.06
2022-11-28T06:06:17.702Z,84.67
2022-11-28T06:08:45.786Z,84.78
2022-11-28T06:11:14.857Z,84.68
2022-11-28T06:13:43.252Z,84.60
2022-11-28T06:16:30.847Z,84.74
2022-11-28T06:19:02.550Z,84.16
2022-11-28T06:21:30.289Z,84.16
2022-11-28T06:23:58.618Z,84.27
2022-11-28T06:26:27.146Z,83.51
2022-11-28T06:28:55.598Z,83.82
2022-11-28T06:31:30.497Z,83.75
2022-11-28T06:33:58.656Z,83.48
2022-11-28T06:36:26.412Z,82.97
2022-11-28T06:38:53.626Z,82.66
2022-11-28T06:41:22.949Z,82.42
2022-11-28T06:43:49.812Z,81.69
2022-11-28T06:46:19.018Z,81.59
2022-11-28T06:48:46.983Z,81.53
2022-11-28T06:51:14.457Z,82.03
2022-11-28T06:53:41.620Z,81.87
2022-11-28T06:56:11.639Z,81.77
2022-11-28T06:58:38.445Z,82.10
2022-11-28T07:01:10.928Z,82.82
2022-11-28T07:03:38.745Z,82.33
2022-11-28T07:06:06.414Z,82.59
2022-11-28T07:08:33.505Z,82.65
2022-11-28T07:11:17.686Z,82.85
2022-11-28T07:13:48.017Z,81.91
2022-11-28T07:16:24.091Z,81.45
2022-11-28T07:18:51.856Z,81.35
2022-11-28T07:21:19.366Z,81.29
2022-11-28T07:23:46.890Z,80.75
2022-11-28T07:26:15.919Z,80.81
2022-11-28T07:28:43.540Z,80.67
2022-11-28T07:31:19.620Z,79.75
2022-11-28T07:33:48.920Z,79.82
2022-11-28T07:36:18.464Z,79.99
2022-11-28T07:38:55.698Z,80.18
2022-11-28T07:41:26.768Z,79.73
2022-11-28T07:43:58.983Z,79.89
2022-11-28T07:46:27.078Z,79.42
2022-11-28T07:48:54.115Z,78.92
2022-11-28T07:51:26.395Z,78.78
2022-11-28T07:53:53.429Z,78.21
2022-11-28T07:56:31.904Z,77.70
2022-11-28T07:59:06.839Z,78.03
2022-11-28T08:01:38.729Z,78.28
2022-11-28T08:04:07.445Z,79.94
2022-11-28T08:06:38.286Z,79.90
2022-11-28T08:09:05.163Z,80.34
2022-11-28T08:11:32.713Z,80.96
2022-11-28T08:14:00.018Z,82.00
2022-11-28T08:16:28.958Z,80.93
2022-11-28T08:18:56.519Z,82.04
2022-11-28T08:21:26.012Z,82.87
2022-11-28T08:23:55.328Z,84.14
2022-11-28T08:26:28.818Z,83.38
2022-11-28T08:28:57.841Z,83.69
2022-11-28T08:31:29.186Z,83.78
2022-11-28T08:33:59.821Z,83.37
2022-11-28T08:36:29.026Z,84.57
2022-11-28T08:39:22.958Z,84.18
2022-11-28T08:41:42.836Z,83.88
2022-11-28T08:44:09.464Z,83.48
2022-11-28T08:46:36.759Z,83.45
2022-11-28T08:49:04.664Z,84.17
2022-11-28T08:51:31.999Z,84.48
2022-11-28T08:53:59.852Z,83.60
2022-11-28T08:56:27.346Z,83.08
2022-11-28T08:58:54.625Z,83.10
2022-11-28T09:01:24.145Z,82.86
2022-11-28T09:03:52.246Z,82.58
2022-11-28T09:06:20.942Z,83.44
2022-11-28T09:08:48.234Z,82.23
2022-11-28T09:11:17.646Z,82.32
2022-11-28T09:13:45.146Z,80.93
2022-11-28T09:16:12.653Z,80.57
2022-11-28T09:18:39.352Z,81.00
2022-11-28T09:21:10.274Z,81.12
2022-11-28T09:23:38.102Z,81.30
2022-11-28T09:26:15.660Z,80.72
2022-11-28T09:28:42.793Z,79.83
2022-11-28T09:31:09.844Z,80.10
2022-11-28T09:33:37.030Z,80.43
2022-11-28T09:36:08.980Z,80.40
2022-11-28T09:38:36.218Z,80.36
2022-11-28T09:41:04.188Z,81.57
2022-11-28T09:43:42.693Z,81.26
2022-11-28T09:46:15.083Z,82.52
2022-11-28T09:48:49.496Z,81.41
2022-11-28T09:51:57.774Z,80.27
2022-11-28T09:55:07.348Z,79.75
2022-11-28T09:57:51.712Z,79.92
2022-11-28T10:00:24.042Z,80.29
2022-11-28T10:03:19.703Z,80.66
2022-11-28T10:06:12.877Z,80.23
2022-11-28T10:08:42.645Z,81.07
2022-11-28T10:11:56.463Z,81.55
2022-11-28T10:14:55.004Z,82.55
2022-11-28T10:17:39.909Z,81.89
2022-11-28T10:20:10.971Z,83.09
2022-11-28T10:22:43.973Z,84.15
2022-11-28T10:25:18.155Z,84.58
2022-11-28T10:27:46.167Z,84.54
2022-11-28T10:30:15.673Z,86.30
2022-11-28T10:32:47.270Z,86.84
2022-11-28T10:35:44.532Z,85.54
2022-11-28T10:38:13.927Z,84.77
2022-11-28T10:40:52.342Z,85.47
2022-11-28T10:43:44.220Z,84.47
2022-11-28T10:46:23.205Z,86.21
2022-11-28T10:48:58.788Z,86.01
2022-11-28T10:51:37.088Z,86.07
2022-11-28T10:54:24.674Z,87.42
2022-11-28T10:57:03.023Z,86.99
2022-11-28T10:59:54.224Z,87.05
2022-11-28T11:02:38.193Z,86.84
2022-11-28T11:05:06.966Z,87.30
2022-11-28T11:07:34.357Z,88.44
2022-11-28T11:10:32.868Z,87.58
2022-11-28T11:12:59.864Z,88.56
2022-11-28T11:15:32.498Z,88.29
2022-11-28T11:18:19.800Z,89.55
2022-11-28T11:20:46.441Z,89.91
2022-11-28T11:23:19.338Z,90.00
2022-11-28T11:25:58.285Z,89.59
2022-11-28T11:28:40.405Z,90.59
2022-11-28T11:31:16.435Z,89.46
2022-11-28T11:33:43.472Z,90.24
2022-11-28T11:36:26.762Z,90.93
2022-11-28T11:39:13.261Z,91.22
2022-11-28T11:41:45.497Z,91.62
2022-11-28T11:44:15.142Z,91.35
2022-11-28T11:46:55.102Z,90.89
2022-11-28T11:49:43.805Z,90.86
2022-11-28T11:52:13.403Z,91.45
2022-11-28T11:54:52.316Z,91.92
2022-11-28T11:57:33.025Z,92.35
2022-11-28T12:00:10.986Z,92.14
2022-11-28T12:02:46.023Z,92.44
2022-11-28T12:05:28.699Z,92.13
2022-11-28T12:07:58.399Z,90.93
2022-11-28T12:10:28.281Z,91.33
2022-11-28T12:12:55.187Z,91.25
2022-11-28T12:15:40.399Z,90.63
2022-11-28T12:18:09.737Z,90.34
2022-11-28T12:20:49.976Z,90.47
2022-11-28T12:23:52.358Z,89.94
2022-11-28T12:26:30.780Z,90.13
2022-11-28T12:29:18.051Z,88.47
2022-11-28T12:32:06.290Z,89.04
2022-11-28T12:34:57.607Z,88.77
2022-11-28T12:37:29.441Z,88.54
2022-11-28T12:40:19.092Z,89.05
2022-11-28T12:42:52.527Z,88.97
2022-11-28T12:45:40.933Z,88.73
2022-11-28T12:48:36.652Z,89.23
2022-11-28T12:51:35.706Z,89.37
2022-11-28T12:54:30.976Z,89.00
2022-11-28T12:57:00.239Z,89.36
2022-11-28T12:59:43.594Z,89.09
2022-11-28T13:02:29.687Z,88.06
2022-11-28T13:05:19.917Z,88.52
2022-11-28T13:07:49.161Z,88.52
2022-11-28T13:10:36.706Z,89.16
2022-11-28T13:13:15.254Z,89.10
2022-11-28T13:16:14.199Z,88.68
2022-11-28T13:18:55.581Z,88.33
2022-11-28T13:21:41.726Z,89.56
2022-11-28T13:24:40.129Z,88.41
2022-11-28T13:27:23.830Z,88.42
2022-11-28T13:30:11.915Z,89.08
2022-11-28T13:32:45.844Z,89.43
2022-11-28T13:35:17.780Z,90.10
2022-11-28T13:41:00.629Z,90.07
2022-11-28T13:43:39.525Z,90.83
2022-11-28T13:46:09.184Z,91.57
2022-11-28T13:51:32.097Z,92.46
2022-11-28T13:54:17.783Z,92.08
2022-11-28T13:57:03.877Z,92.47
2022-11-28T13:59:32.441Z,92.52
2022-11-28T14:02:01.988Z,92.85
2022-11-28T14:04:31.521Z,91.49
2022-11-28T14:07:07.715Z,90.81
2022-11-28T14:09:44.740Z,91.42
2022-11-28T14:12:34.265Z,91.35
2022-11-28T14:15:34.968Z,92.52
2022-11-28T14:21:49.804Z,92.91
2022-11-28T14:24:37.946Z,92.79
2022-11-28T14:27:06.721Z,93.25
2022-11-28T14:29:40.687Z,93.67
2022-11-28T14:32:30.223Z,94.04
2022-11-28T14:34:57.611Z,94.93
2022-11-28T14:37:28.577Z,95.69
2022-11-28T14:39:57.427Z,95.47
2022-11-28T14:45:42.929Z,95.33
2022-11-28T14:48:28.086Z,96.08
2022-11-28T14:51:00.844Z,95.92
2022-11-28T14:53:37.298Z,96.59
2022-11-28T14:56:13.501Z,96.57
2022-11-28T14:58:46.338Z,96.51
2022-11-28T15:01:20.714Z,96.83
2022-11-28T15:04:00.018Z,96.09
2022-11-28T15:06:44.812Z,96.59
2022-11-28T15:09:35.359Z,95.95
2022-11-28T15:12:28.213Z,95.68
2022-11-28T15:14:57.903Z,96.02
2022-11-28T15:17:34.097Z,96.00
2022-11-28T15:20:09.100Z,96.22
2022-11-28T15:22:43.259Z,96.94
2022-11-28T15:25:24.991Z,97.68
2022-11-28T15:27:51.980Z,98.17
2022-11-28T15:30:27.259Z,97.58
2022-11-28T15:32:58.531Z,97.37
2022-11-28T15:35:26.277Z,97.72
2022-11-28T15:37:58.398Z,98.26
2022-11-28T15:40:33.788Z,98.38
2022-11-28T15:43:06.605Z,98.17
2022-11-28T15:45:36.956Z,98.38
2022-11-28T15:48:04.892Z,98.09
2022-11-28T15:50:33.927Z,98.13
2022-11-28T15:53:01.898Z,97.52
2022-11-28T15:55:31.459Z,98.10
2022-11-28T15:58:30.194Z,98.66
2022-11-28T16:00:56.793Z,98.90
2022-11-28T16:03:26.321Z,99.27
2022-11-28T16:05:56.053Z,99.11
2022-11-28T16:08:29.106Z,99.88
2022-11-28T16:10:57.929Z,99.89
2022-11-28T16:13:25.025Z,99.90
2022-11-28T16:15:56.024Z,98.97
2022-11-28T16:18:25.591Z,99.21
2022-11-28T16:20:52.396Z,99.57
2022-11-28T16:23:30.089Z,100.00
2022-11-28T16:26:19.971Z,100.00
2022-11-28T16:29:02.430Z,100.00
2022-11-28T16:31:29.695Z,100.00
2022-11-28T16:33:56.719Z,100.00
2022-11-28T16:36:31.222Z,100.00
2022-11-28T16:39:24.222Z,100.00
2022-11-28T16:42:05.148Z,100.00
2022-11-28T16:44:33.610Z,100.00
2022-11-28T16:47:01.027Z,100.00
2022-11-28T16:49:45.125Z,100.00
2022-11-28T16:52:21.217Z,100.00
2022-11-28T16:54:49.236Z,100.00
2022-11-28T16:57:15.901Z,100.00
2022-11-28T16:59:44.603Z,100.00
2022-11-28T17:02:26.879Z,100.00
2022-11-28T17:04:53.825Z,100.00
2022-11-28T17:07:24.652Z,100.00
2022-11-28T17:09:51.355Z,100.00
2022-11-28T17:12:34.205Z,100.00
2022-11-28T17:15:00.803Z,100.00
2022-11-28T17:17:27.777Z,100.00
2022-11-28T17:19:54.537Z,100.00
2022-11-28T17:22:27.223Z,100.00
2022-11-28T17:25:00.491Z,100.00
2022-11-28T17:27:27.659Z,100.00
2022-11-28T17:29:54.324Z,100.00
2022-11-28T17:32:20.946Z,100.00
2022-11-28T17:34:47.514Z,100.00
2022-11-28T17:37:14.368Z,100.00
2022-11-28T17:40:00.914Z,100.00
2022-11-28T17:42:27.573Z,100.00
2022-11-28T17:44:54.188Z,100.00
2022-11-28T17:47:20.838Z,100.00
2022-11-28T17:49:47.784Z,100.00
2022-11-28T17:52:15.069Z,100.00
2022-11-28T17:54:41.681Z,100.00
2022-11-28T17:57:09.476Z,100.00
2022-11-28T17:59:37.708Z,100.00
2022-11-28T18:02:04.447Z,100.00
2022-11-28T18:04:31.205Z,100.00
2022-11-28T18:06:57.812Z,100.00
2022-11-28T18:09:24.503Z,100.00
2022-11-28T18:11:51.698Z,100.00
2022-11-28T18:14:19.873Z,100.00
2022-11-28T18:16:46.832Z,100.00
2022-11-28T18:19:13.717Z,100.00
2022-11-28T18:21:40.587Z,100.00
2022-11-28T18:24:07.563Z,100.00
2022-11-28T18:26:34.864Z,100.00
2022-11-28T18:29:01.536Z,100.00
2022-11-28T18:31:29.601Z,100.00
2022-11-28T18:34:02.110Z,100.00
2022-11-28T18:36:30.818Z,100.00
2022-11-28T18:39:03.087Z,100.00
2022-11-28T18:41:30.507Z,100.00
2022-11-28T18:44:02.101Z,100.00
2022-11-28T18:46:30.107Z,100.00
2022-11-28T18:48:57.370Z,100.00
2022-11-28T18:51:29.626Z,100.00
2022-11-28T18:53:56.859Z,100.00
2022-11-28T18:56:24.598Z,100.00
2022-11-28T18:58:53.130Z,100.00
2022-11-28T19:01:30.311Z,100.00
2022-11-28T19:03:59.356Z,100.00
2022-11-28T19:06:26.458Z,100.00
2022-11-28T19:08:55.210Z,100.00
2022-11-28T19:11:23.195Z,100.00
2022-11-28T19:13:52.795Z,100.00
2022-11-28T19:16:22.188Z,100.00
2022-11-28T19:18:48.921Z,100.00
2022-11-28T19:21:21.878Z,100.00
2022-11-28T19:23:49.022Z,100.00
2022-11-28T19:26:18.688Z,100.00
2022-11-28T19:28:46.170Z,100.00
2022-11-28T19:31:15.280Z,100.00
2022-11-28T19:33:43.533Z,100.00
2022-11-28T19:36:15.403Z,100.00
2022-11-28T19:38:42.583Z,100.00
2022-11-28T19:41:13.968Z,100.00
2022-11-28T19:43:41.509Z,100.00
2022-11-28T19:46:09.473Z,100.00
2022-11-28T19:48:37.354Z,100.00
2022-11-28T19:51:05.045Z,100.00
2022-11-28T19:53:33.296Z,100.00
2022-11-28T19:56:04.609Z,100.00
2022-11-28T19:58:31.648Z,100.00
2022-11-28T20:01:10.570Z,100.00
2022-11-28T20:03:38.316Z,100.00
2022-11-28T20:06:12.551Z,100.00
2022-11-28T20:08:40.044Z,100.00
2022-11-28T20:11:08.926Z,100.00
2022-11-28T20:13:35.563Z,100.00
2022-11-28T20:16:04.731Z,100.00
2022-11-28T20:18:31.492Z,100.00
2022-11-28T20:21:09.247Z,100.00
2022-11-28T20:23:44.293Z,100.00
2022-11-28T20:26:12.311Z,100.00
2022-11-28T20:28:40.600Z,100.00
2022-11-28T20:31:16.712Z,100.00
2022-11-28T20:33:43.311Z,100.00
2022-11-28T20:36:13.790Z,100.00
2022-11-28T20:38:40.536Z,100.00
2022-11-28T20:41:10.337Z,100.00
2022-11-28T20:43:38.882Z,100.00
2022-11-28T20:46:11.902Z,100.00
2022-11-28T20:48:39.586Z,100.00
2022-11-28T20:51:15.552Z,100.00
2022-11-28T20:53:42.437Z,100.00
2022-11-28T20:56:14.056Z,100.00
2022-11-28T20:58:41.184Z,100.00
2022-11-28T21:01:08.501Z,100.00
2022-11-28T21:03:35.211Z,100.00
2022-11-28T21:06:01.904Z,100.00
2022-11-28T21:08:31.345Z,100.00
2022-11-28T21:10:58.047Z,100.00
2022-11-28T21:13:25.165Z,100.00
2022-11-28T21:15:53.505Z,100.00
2022-11-28T21:18:20.228Z,100.00
2022-11-28T21:20:47.223Z,100.00
2022-11-28T21:23:15.995Z,100.00
2022-11-28T21:25:44.410Z,100.00
2022-11-28T21:28:12.155Z,100.00
2022-11-28T21:30:41.557Z,100.00
2022-11-28T21:33:09.060Z,100.00
2022-11-28T21:35:36.018Z,100.00
2022-11-28T21:38:02.797Z,100.00
2022-11-28T21:40:29.349Z,100.00
2022-11-28T21:42:57.024Z,100.00
2022-11-28T21:45:24.696Z,100.00
2022-11-28T21:47:52.307Z,100.00
2022-11-28T21:50:18.911Z,100.00
2022-11-28T21:52:45.515Z,100.00
2022-11-28T21:55:12.080Z,100.00
2022-11-28T21:57:38.821Z,100.00
2022-11-28T22:00:06.205Z,100.00
2022-11-28T22:02:32.843Z,100.00
2022-11-28T22:05:00.058Z,100.00
2022-11-28T22:07:26.710Z,100.00
2022-11-28T22:09:54.232Z,100.00
2022-11-28T22:12:20.776Z,100.00
2022-11-28T22:14:47.642Z,100.00
2022-11-28T22:17:14.329Z,100.00
2022-11-28T22:19:41.505Z,100.00
2022-11-28T22:22:08.063Z,100.00
2022-11-28T22:24:34.664Z,100.00
2022-11-28T22:27:01.315Z,100.00
2022-11-28T22:29:27.931Z,100.00
2022-11-28T22:31:54.725Z,100.00
2022-11-28T22:34:21.337Z,100.00
2022-11-28T22:36:47.906Z,100.00
2022-11-28T22:39:14.506Z,100.00
2022-11-28T22:41:41.406Z,100.00
2022-11-28T22:44:08.058Z,100.00
2022-11-28T22:46:34.694Z,100.00
2022-11-28T22:49:01.909Z,100.00
2022-11-28T22:51:29.548Z,100.00
2022-11-28T22:54:01.786Z,100.00
2022-11-28T22:56:30.084Z,100.00
2022-11-28T22:58:56.625Z,100.00
2022-11-28T23:01:28.594Z,100.00
2022-11-28T23:03:56.008Z,100.00
2022-11-28T23:06:25.544Z,100.00
2022-11-28T23:08:52.310Z,100.00
2022-11-28T23:11:27.132Z,100.00
2022-11-28T23:13:54.699Z,100.00
2022-11-28T23:16:37.938Z,100.00
2022-11-28T23:19:07.221Z,100.00
2022-11-28T23:21:37.117Z,100.00
2022-11-28T23:24:04.802Z,100.00
2022-11-28T23:26:32.965Z,100.00
2022-11-28T23:29:00.952Z,100.00
2022-11-28T23:31:30.714Z,100.00
2022-11-28T23:33:59.829Z,100.00
2022-11-28T23:36:42.062Z,100.00
2022-11-28T23:39:18.447Z,100.00
2022-11-28T23:41:45.988Z,100.00
2022-11-28T23:44:14.430Z,100.00
2022-11-28T23:46:42.121Z,100.00
2022-11-28T23:49:09.701Z,100.00
2022-11-28T23:51:37.312Z,100.00
2022-11-28T23:54:04.545Z,100.00
2022-11-28T23:56:34.455Z,100.00
2022-11-28T23:59:03.532Z,100.00
